Time;durP1;ratioP1;P1;durP2;ratioP2;P2;SDS_P1;SDS_P2;PMS_P1;PMS_P2;Temp;Humidity;BMP_temperature;BMP_pressure;BME280_temperature;BME280_humidity;BME280_pressure;Samples;Min_cycle;Max_cycle;Signal;HPM_P1;HPM_P2
2024/05/06 00:01:24;;;;;;;0.70;0.50;;;;;;;;;;5524398;26;20813;-79
2024/05/06 00:03:50;;;;;;;0.80;0.50;;;;;;;;;;5524582;26;20357;-79
2024/05/06 00:06:16;;;;;;;1.42;0.50;;;;;;;;;;5524037;26;20316;-79
2024/05/06 00:08:42;;;;;;;0.68;0.50;;;;;;;;;;5523980;26;20824;-79
2024/05/06 00:11:08;;;;;;;1.45;0.65;;;;;;;;;;5524236;26;20332;-80
2024/05/06 00:13:34;;;;;;;1.30;0.60;;;;;;;;;;5524198;26;20320;-80
2024/05/06 00:16:00;;;;;;;1.55;0.80;;;;;;;;;;5524694;26;20397;-79
2024/05/06 00:18:26;;;;;;;3.28;0.70;;;;;;;;;;5523945;26;20327;-80
2024/05/06 00:20:52;;;;;;;0.80;0.77;;;;;;;;;;5523911;26;20335;-80
2024/05/06 00:23:18;;;;;;;0.80;0.80;;;;;;;;;;5524044;26;20319;-79
2024/05/06 00:25:44;;;;;;;0.80;0.80;;;;;;;;;;5524107;26;20437;-79
2024/05/06 00:28:10;;;;;;;1.30;0.70;;;;;;;;;;5523907;26;20371;-79
2024/05/06 00:30:36;;;;;;;3.13;1.10;;;;;;;;;;5523291;26;20332;-80
2024/05/06 00:33:02;;;;;;;1.80;1.40;;;;;;;;;;5523430;26;20868;-79
2024/05/06 00:35:28;;;;;;;1.80;1.30;;;;;;;;;;5523670;26;20385;-79
2024/05/06 00:37:54;;;;;;;1.50;1.02;;;;;;;;;;5523649;26;20319;-79
2024/05/06 00:40:20;;;;;;;1.50;0.87;;;;;;;;;;5523658;26;20364;-79
2024/05/06 00:42:55;;;;;;;1.70;0.82;;;;;;;;;;5523421;26;20907;-79
2024/05/06 00:45:21;;;;;;;1.17;1.00;;;;;;;;;;5523601;26;20360;-79
2024/05/06 00:47:47;;;;;;;1.20;0.70;;;;;;;;;;5523577;26;20320;-79
2024/05/06 00:50:13;;;;;;;1.42;0.55;;;;;;;;;;5523713;26;20448;-80
2024/05/06 00:52:39;;;;;;;3.33;0.80;;;;;;;;;;5524052;26;20424;-80
2024/05/06 00:55:06;;;;;;;0.93;0.70;;;;;;;;;;5523584;26;20846;-80
2024/05/06 00:57:33;;;;;;;1.35;0.60;;;;;;;;;;5523237;26;20323;-80
2024/05/06 00:59:59;;;;;;;1.50;0.60;;;;;;;;;;5523397;26;20335;-80
2024/05/06 01:02:27;;;;;;;0.75;0.50;;;;;;;;;;5523115;26;20683;-79
2024/05/06 01:04:54;;;;;;;2.15;0.98;;;;;;;;;;5523332;26;20363;-79
2024/05/06 01:07:20;;;;;;;3.15;1.40;;;;;;;;;;5523339;26;20821;-79
2024/05/06 01:09:46;;;;;;;3.58;1.70;;;;;;;;;;5522866;26;20332;-79
2024/05/06 01:12:12;;;;;;;3.13;1.80;;;;;;;;;;5523088;26;20319;-80
2024/05/06 01:14:38;;;;;;;2.38;1.30;;;;;;;;;;5522636;26;20316;-80
2024/05/06 01:17:04;;;;;;;2.13;1.20;;;;;;;;;;5523250;26;20700;-80
2024/05/06 01:19:30;;;;;;;1.70;1.02;;;;;;;;;;5516646;26;20338;-80
2024/05/06 01:21:57;;;;;;;3.28;0.90;;;;;;;;;;5520759;25;20330;-81
2024/05/06 01:24:24;;;;;;;1.80;1.20;;;;;;;;;;5508255;25;20801;-81
2024/05/06 01:26:50;;;;;;;1.77;0.93;;;;;;;;;;5547442;25;20376;-81
2024/05/06 01:29:16;;;;;;;2.67;1.57;;;;;;;;;;5562370;25;20365;-81
2024/05/06 01:31:42;;;;;;;1.98;1.40;;;;;;;;;;5564227;25;20357;-81
2024/05/06 01:34:08;;;;;;;2.38;1.80;;;;;;;;;;5562358;25;20364;-81
2024/05/06 01:36:34;;;;;;;2.25;1.30;;;;;;;;;;5563984;25;20397;-81
2024/05/06 01:39:00;;;;;;;2.13;1.40;;;;;;;;;;5564278;25;20321;-81
2024/05/06 01:41:26;;;;;;;2.10;1.30;;;;;;;;;;5563940;25;20317;-81
2024/05/06 01:43:52;;;;;;;2.50;1.40;;;;;;;;;;5563787;25;20672;-81
2024/05/06 01:46:18;;;;;;;1.85;0.80;;;;;;;;;;5564084;25;20309;-81
2024/05/06 01:48:44;;;;;;;1.30;0.88;;;;;;;;;;5564393;25;20316;-81
2024/05/06 01:51:10;;;;;;;2.37;1.10;;;;;;;;;;5563717;25;20361;-81
2024/05/06 01:53:37;;;;;;;1.63;0.80;;;;;;;;;;5563920;25;20409;-81
2024/05/06 01:56:03;;;;;;;3.65;1.23;;;;;;;;;;5563637;25;20376;-81
2024/05/06 01:58:29;;;;;;;1.23;0.98;;;;;;;;;;5563146;25;20857;-81
2024/05/06 02:00:55;;;;;;;1.77;0.90;;;;;;;;;;5525747;26;20376;-81
2024/05/06 02:03:21;;;;;;;1.27;1.00;;;;;;;;;;5525927;26;20339;-81
2024/05/06 02:05:47;;;;;;;1.33;0.80;;;;;;;;;;5526020;26;20362;-81
2024/05/06 02:08:12;;;;;;;1.17;0.88;;;;;;;;;;5526615;26;20406;-81
2024/05/06 02:10:39;;;;;;;2.30;1.00;;;;;;;;;;5525942;26;20723;-81
2024/05/06 02:13:05;;;;;;;1.50;0.95;;;;;;;;;;5526070;26;20324;-81
2024/05/06 02:15:32;;;;;;;2.00;0.87;;;;;;;;;;5525724;26;20722;-81
2024/05/06 02:17:58;;;;;;;1.15;0.90;;;;;;;;;;5525788;26;20364;-81
2024/05/06 02:20:24;;;;;;;1.08;0.98;;;;;;;;;;5525746;26;20328;-81
2024/05/06 02:22:50;;;;;;;1.30;0.83;;;;;;;;;;5525759;26;20323;-81
2024/05/06 02:25:16;;;;;;;0.80;0.70;;;;;;;;;;5525696;26;20324;-81
2024/05/06 02:27:42;;;;;;;1.52;0.70;;;;;;;;;;5525920;26;20324;-81
2024/05/06 02:30:08;;;;;;;0.80;0.60;;;;;;;;;;5525406;26;20935;-81
2024/05/06 02:32:34;;;;;;;0.80;0.80;;;;;;;;;;5525411;26;20323;-81
2024/05/06 02:35:00;;;;;;;0.80;0.70;;;;;;;;;;5525963;26;20332;-81
2024/05/06 02:37:26;;;;;;;0.60;0.50;;;;;;;;;;5524195;26;20352;-81
2024/05/06 02:39:52;;;;;;;0.73;0.52;;;;;;;;;;5525460;26;20328;-81
2024/05/06 02:42:18;;;;;;;0.90;0.60;;;;;;;;;;5525412;26;20376;-81
2024/05/06 02:44:44;;;;;;;1.20;0.80;;;;;;;;;;5525876;26;20425;-81
2024/05/06 02:47:10;;;;;;;2.22;0.80;;;;;;;;;;5525779;26;20658;-81
2024/05/06 02:49:36;;;;;;;1.00;0.52;;;;;;;;;;5525208;26;20339;-81
2024/05/06 02:52:02;;;;;;;0.88;0.65;;;;;;;;;;5525546;26;20433;-81
2024/05/06 02:54:28;;;;;;;0.98;0.60;;;;;;;;;;5525569;26;20935;-81
2024/05/06 02:56:54;;;;;;;1.10;0.73;;;;;;;;;;5525323;26;20328;-81
2024/05/06 02:59:20;;;;;;;1.08;0.60;;;;;;;;;;5525153;26;20331;-81
2024/05/06 03:01:46;;;;;;;0.82;0.80;;;;;;;;;;5525402;26;20323;-81
2024/05/06 03:04:12;;;;;;;0.70;0.63;;;;;;;;;;5525430;26;20369;-81
2024/05/06 03:06:41;;;;;;;0.80;0.60;;;;;;;;;;5525100;26;20891;-81
2024/05/06 03:09:07;;;;;;;1.30;0.70;;;;;;;;;;5525178;26;20328;-81
2024/05/06 03:11:42;;;;;;;1.10;0.70;;;;;;;;;;5525208;26;20380;-82
2024/05/06 03:14:11;;;;;;;1.70;0.80;;;;;;;;;;5524942;26;20362;-82
2024/05/06 03:16:40;;;;;;;1.15;0.80;;;;;;;;;;5525069;26;20365;-82
2024/05/06 03:19:08;;;;;;;0.98;0.88;;;;;;;;;;5525191;26;20424;-82
2024/05/06 03:21:34;;;;;;;1.30;0.80;;;;;;;;;;5525367;26;20336;-82
2024/05/06 03:24:00;;;;;;;1.33;0.90;;;;;;;;;;5499319;26;20374;-82
2024/05/06 03:26:26;;;;;;;0.85;0.70;;;;;;;;;;5488727;26;20370;-82
2024/05/06 03:28:52;;;;;;;1.55;0.90;;;;;;;;;;5488028;26;20389;-82
2024/05/06 03:31:21;;;;;;;1.38;1.10;;;;;;;;;;5488008;26;20322;-82
2024/05/06 03:33:47;;;;;;;3.65;0.80;;;;;;;;;;5488090;26;20338;-82
2024/05/06 03:36:13;;;;;;;1.00;0.63;;;;;;;;;;5487981;26;20357;-82
2024/05/06 03:38:40;;;;;;;0.88;0.70;;;;;;;;;;5487757;26;20386;-82
2024/05/06 03:41:06;;;;;;;1.00;0.80;;;;;;;;;;5487666;26;20322;-82
2024/05/06 03:43:37;;;;;;;1.00;0.80;;;;;;;;;;5455639;26;20835;-82
2024/05/06 03:46:04;;;;;;;1.08;0.70;;;;;;;;;;5487775;26;20370;-82
2024/05/06 03:48:30;;;;;;;1.00;0.90;;;;;;;;;;5486787;26;20444;-82
2024/05/06 03:50:55;;;;;;;1.15;0.85;;;;;;;;;;5487607;26;20373;-82
2024/05/06 03:53:21;;;;;;;0.85;0.65;;;;;;;;;;5487405;26;20855;-82
2024/05/06 03:55:47;;;;;;;0.97;0.80;;;;;;;;;;5519378;26;20376;-82
2024/05/06 03:58:16;;;;;;;0.65;0.65;;;;;;;;;;5524441;26;20324;-82
2024/05/06 04:00:42;;;;;;;1.00;0.90;;;;;;;;;;5524488;26;20750;-82
2024/05/06 04:03:07;;;;;;;1.10;1.00;;;;;;;;;;5525048;26;20352;-82
2024/05/06 04:05:33;;;;;;;2.00;1.30;;;;;;;;;;5524584;26;20372;-82
2024/05/06 04:07:59;;;;;;;1.00;0.90;;;;;;;;;;5524304;26;20331;-82
2024/05/06 04:10:25;;;;;;;2.13;1.02;;;;;;;;;;5524126;26;20886;-82
2024/05/06 04:12:51;;;;;;;1.08;0.90;;;;;;;;;;5523946;26;20403;-82
2024/05/06 04:15:17;;;;;;;2.15;1.10;;;;;;;;;;5523930;26;20391;-82
2024/05/06 04:17:43;;;;;;;2.33;1.60;;;;;;;;;;5523953;26;20533;-82
2024/05/06 04:20:13;;;;;;;2.53;1.70;;;;;;;;;;5523728;26;20445;-82
2024/05/06 04:22:39;;;;;;;3.30;1.60;;;;;;;;;;5523359;26;20331;-82
2024/05/06 04:28:10;;;;;;;2.20;2.05;;;;;;;;;;5340974;26;20690;-82
2024/05/06 04:30:36;;;;;;;2.80;1.42;;;;;;;;;;5341418;26;20375;-83
2024/05/06 04:33:02;;;;;;;3.87;1.53;;;;;;;;;;5425722;26;20416;-83
2024/05/06 04:35:28;;;;;;;1.95;1.50;;;;;;;;;;5524355;26;20368;-82
2024/05/06 04:37:54;;;;;;;1.80;1.70;;;;;;;;;;5524882;26;20356;-83
2024/05/06 04:40:20;;;;;;;1.70;1.60;;;;;;;;;;5525026;26;20331;-83
2024/05/06 04:42:46;;;;;;;1.30;1.20;;;;;;;;;;5524972;26;20355;-83
2024/05/06 04:45:12;;;;;;;1.70;1.10;;;;;;;;;;5524762;26;20423;-82
2024/05/06 04:47:38;;;;;;;1.42;1.17;;;;;;;;;;5525179;26;20320;-83
2024/05/06 04:50:06;;;;;;;1.20;1.10;;;;;;;;;;5524724;26;20812;-82
2024/05/06 04:52:32;;;;;;;1.50;1.10;;;;;;;;;;5525077;26;20751;-82
2024/05/06 04:54:58;;;;;;;1.57;1.20;;;;;;;;;;5524902;26;20328;-83
2024/05/06 04:57:24;;;;;;;1.50;1.40;;;;;;;;;;5524467;26;20352;-82
2024/05/06 04:59:50;;;;;;;1.38;1.27;;;;;;;;;;5526031;26;20332;-82
2024/05/06 05:02:16;;;;;;;1.70;1.15;;;;;;;;;;5528558;26;20331;-82
2024/05/06 05:04:42;;;;;;;1.25;1.13;;;;;;;;;;5528165;26;20327;-82
2024/05/06 05:07:08;;;;;;;2.03;1.50;;;;;;;;;;5527613;26;20420;-83
2024/05/06 05:09:34;;;;;;;3.10;1.60;;;;;;;;;;5527972;26;20411;-82
2024/05/06 05:12:00;;;;;;;1.80;1.50;;;;;;;;;;5528538;26;20315;-83
2024/05/06 05:14:25;;;;;;;2.40;1.65;;;;;;;;;;5528541;26;20359;-82
2024/05/06 05:16:51;;;;;;;1.60;1.40;;;;;;;;;;5528693;26;20412;-82
2024/05/06 05:19:17;;;;;;;1.77;1.67;;;;;;;;;;5529073;26;20335;-82
2024/05/06 05:21:43;;;;;;;1.90;1.80;;;;;;;;;;5528308;26;20711;-82
2024/05/06 05:24:09;;;;;;;1.60;1.50;;;;;;;;;;5528167;26;20395;-82
2024/05/06 05:26:35;;;;;;;1.60;1.50;;;;;;;;;;5528461;26;20308;-82
2024/05/06 05:29:01;;;;;;;1.60;1.50;;;;;;;;;;5528361;26;20824;-81
2024/05/06 05:31:27;;;;;;;1.70;1.20;;;;;;;;;;5522006;26;20368;-83
2024/05/06 05:33:53;;;;;;;2.10;1.20;;;;;;;;;;5527987;26;20323;-83
2024/05/06 05:36:19;;;;;;;1.02;1.02;;;;;;;;;;5527703;26;20775;-83
2024/05/06 05:38:45;;;;;;;1.27;1.20;;;;;;;;;;5525513;26;20320;-83
2024/05/06 05:41:11;;;;;;;1.13;1.03;;;;;;;;;;5491688;26;20323;-82
2024/05/06 05:43:37;;;;;;;1.30;1.20;;;;;;;;;;5491192;26;20323;-83
2024/05/06 05:46:04;;;;;;;1.27;1.20;;;;;;;;;;5491271;26;20322;-83
2024/05/06 05:48:30;;;;;;;1.35;1.25;;;;;;;;;;5493551;26;20318;-83
2024/05/06 05:50:56;;;;;;;1.50;1.35;;;;;;;;;;5491432;26;20310;-83
2024/05/06 05:53:23;;;;;;;1.40;1.30;;;;;;;;;;5502183;26;20367;-83
2024/05/06 05:55:49;;;;;;;1.50;1.40;;;;;;;;;;5529430;26;20324;-83
2024/05/06 05:58:16;;;;;;;2.00;1.50;;;;;;;;;;5530166;26;20694;-83
2024/05/06 06:00:42;;;;;;;1.25;1.15;;;;;;;;;;5528845;26;20352;-83
2024/05/06 06:03:08;;;;;;;1.77;1.67;;;;;;;;;;5528452;26;20316;-83
2024/05/06 06:05:34;;;;;;;1.63;1.52;;;;;;;;;;5528244;26;20360;-83
2024/05/06 06:08:00;;;;;;;1.60;1.50;;;;;;;;;;5525502;26;20308;-82
2024/05/06 06:10:26;;;;;;;1.60;1.50;;;;;;;;;;5525502;26;20319;-83
2024/05/06 06:12:52;;;;;;;1.80;1.40;;;;;;;;;;5526917;26;20690;-84
2024/05/06 06:15:19;;;;;;;1.50;1.40;;;;;;;;;;5526237;26;20311;-83
2024/05/06 06:17:45;;;;;;;2.05;1.60;;;;;;;;;;5527219;26;20311;-84
2024/05/06 06:20:11;;;;;;;1.67;1.58;;;;;;;;;;5526672;26;20424;-83
2024/05/06 06:22:37;;;;;;;1.60;1.50;;;;;;;;;;5527057;26;20311;-83
2024/05/06 06:25:03;;;;;;;1.40;1.30;;;;;;;;;;5526891;26;20364;-84
2024/05/06 06:27:29;;;;;;;1.45;1.40;;;;;;;;;;5526930;26;20307;-84
2024/05/06 06:29:55;;;;;;;1.73;1.63;;;;;;;;;;5526642;26;20328;-84
2024/05/06 06:32:21;;;;;;;1.40;1.20;;;;;;;;;;5526688;26;20357;-84
2024/05/06 06:34:47;;;;;;;1.40;1.30;;;;;;;;;;5527196;26;20355;-84
2024/05/06 06:37:13;;;;;;;1.30;1.20;;;;;;;;;;5527366;26;20943;-83
2024/05/06 06:39:39;;;;;;;1.40;1.30;;;;;;;;;;5528100;26;20319;-84
2024/05/06 06:42:05;;;;;;;1.70;1.60;;;;;;;;;;5528494;26;20312;-83
2024/05/06 06:44:31;;;;;;;1.70;1.60;;;;;;;;;;5527104;26;20312;-83
2024/05/06 06:46:57;;;;;;;1.97;1.30;;;;;;;;;;5527576;26;20374;-83
2024/05/06 06:49:23;;;;;;;1.30;1.10;;;;;;;;;;5529200;26;20308;-83
2024/05/06 06:51:48;;;;;;;1.25;1.15;;;;;;;;;;5528092;26;20316;-83
2024/05/06 06:54:15;;;;;;;2.85;1.38;;;;;;;;;;5527761;26;20847;-83
2024/05/06 06:56:41;;;;;;;1.15;1.00;;;;;;;;;;5527801;26;20352;-83
2024/05/06 06:59:07;;;;;;;1.23;1.13;;;;;;;;;;5527225;26;20421;-83
2024/05/06 07:01:33;;;;;;;1.60;1.50;;;;;;;;;;5527822;26;20311;-83
2024/05/06 07:03:59;;;;;;;2.30;1.57;;;;;;;;;;5527296;26;20327;-83
2024/05/06 07:06:25;;;;;;;1.92;1.60;;;;;;;;;;5527281;26;20347;-83
2024/05/06 07:08:51;;;;;;;1.30;1.20;;;;;;;;;;5527151;26;20320;-83
2024/05/06 07:11:17;;;;;;;1.48;1.38;;;;;;;;;;5527112;26;20845;-83
2024/05/06 07:13:43;;;;;;;2.00;1.38;;;;;;;;;;5527463;26;20379;-83
2024/05/06 07:16:09;;;;;;;1.50;1.40;;;;;;;;;;5526662;26;20316;-83
2024/05/06 07:18:35;;;;;;;1.60;1.42;;;;;;;;;;5527363;26;20316;-83
2024/05/06 07:21:01;;;;;;;1.65;1.48;;;;;;;;;;5527589;26;20319;-83
2024/05/06 07:23:27;;;;;;;1.58;1.45;;;;;;;;;;5526052;26;20340;-83
2024/05/06 07:25:53;;;;;;;1.10;1.00;;;;;;;;;;5521647;26;20315;-83
2024/05/06 07:28:19;;;;;;;1.20;0.85;;;;;;;;;;5527360;26;20316;-83
2024/05/06 07:30:45;;;;;;;2.35;1.40;;;;;;;;;;5527155;26;20378;-83
2024/05/06 07:33:11;;;;;;;2.45;2.10;;;;;;;;;;5527193;26;20324;-83
2024/05/06 07:35:37;;;;;;;1.87;1.40;;;;;;;;;;5527361;26;20340;-83
2024/05/06 07:38:03;;;;;;;1.20;1.10;;;;;;;;;;5528719;26;20411;-83
2024/05/06 07:40:29;;;;;;;1.70;1.13;;;;;;;;;;5527594;26;20352;-83
2024/05/06 07:42:54;;;;;;;0.80;0.80;;;;;;;;;;5526830;26;20358;-83
2024/05/06 07:45:20;;;;;;;1.00;1.00;;;;;;;;;;5526760;26;20324;-83
2024/05/06 07:47:47;;;;;;;0.73;0.73;;;;;;;;;;5527380;26;20684;-83
2024/05/06 07:50:13;;;;;;;1.10;0.80;;;;;;;;;;5527713;26;20331;-83
2024/05/06 07:52:39;;;;;;;0.82;0.82;;;;;;;;;;5526580;26;20337;-83
2024/05/06 07:55:05;;;;;;;0.70;0.60;;;;;;;;;;5526826;26;20792;-83
2024/05/06 07:57:31;;;;;;;1.25;0.80;;;;;;;;;;5526619;26;20319;-83
2024/05/06 07:59:57;;;;;;;0.70;0.60;;;;;;;;;;5528322;26;20323;-83
2024/05/06 08:02:23;;;;;;;0.70;0.70;;;;;;;;;;5529854;26;20763;-83
2024/05/06 08:04:49;;;;;;;0.82;0.77;;;;;;;;;;5529291;26;20316;-84
2024/05/06 08:07:15;;;;;;;0.70;0.63;;;;;;;;;;5529925;26;20316;-83
2024/05/06 08:09:41;;;;;;;0.60;0.60;;;;;;;;;;5527753;26;20813;-83
2024/05/06 08:12:07;;;;;;;0.80;0.60;;;;;;;;;;5524697;26;20311;-83
2024/05/06 08:14:33;;;;;;;0.85;0.60;;;;;;;;;;5525306;26;21069;-83
2024/05/06 08:16:59;;;;;;;0.65;0.60;;;;;;;;;;5524986;26;20363;-83
2024/05/06 08:19:26;;;;;;;1.65;0.80;;;;;;;;;;5524633;26;20312;-83
2024/05/06 08:21:52;;;;;;;1.00;0.90;;;;;;;;;;5524326;26;20447;-83
2024/05/06 08:24:19;;;;;;;0.80;0.70;;;;;;;;;;5524408;26;20767;-83
2024/05/06 08:26:46;;;;;;;0.70;0.70;;;;;;;;;;5524099;26;21224;-83
2024/05/06 08:29:12;;;;;;;1.10;0.70;;;;;;;;;;5524138;26;20320;-83
2024/05/06 08:31:38;;;;;;;0.65;0.65;;;;;;;;;;5524535;26;20312;-84
2024/05/06 08:34:04;;;;;;;1.48;0.75;;;;;;;;;;5525093;26;20372;-84
2024/05/06 08:36:30;;;;;;;2.60;0.90;;;;;;;;;;5524122;26;20804;-84
2024/05/06 08:38:56;;;;;;;1.70;0.90;;;;;;;;;;5524793;26;20315;-83
2024/05/06 08:41:22;;;;;;;1.38;0.80;;;;;;;;;;5525238;26;20311;-83
2024/05/06 08:43:49;;;;;;;0.80;0.80;;;;;;;;;;5524961;26;20414;-83
2024/05/06 08:46:16;;;;;;;1.10;0.60;;;;;;;;;;5524024;26;20375;-83
2024/05/06 08:48:42;;;;;;;1.30;0.90;;;;;;;;;;5524454;26;20413;-84
2024/05/06 08:51:09;;;;;;;0.77;0.70;;;;;;;;;;5526295;26;20303;-84
2024/05/06 08:53:35;;;;;;;1.97;0.60;;;;;;;;;;5527062;26;20311;-84
2024/05/06 08:56:01;;;;;;;1.45;0.75;;;;;;;;;;5527159;26;20324;-84
2024/05/06 08:58:27;;;;;;;0.50;0.50;;;;;;;;;;5527898;26;20857;-84
2024/05/06 09:00:53;;;;;;;1.00;0.70;;;;;;;;;;5526954;26;20931;-84
2024/05/06 09:03:22;;;;;;;0.93;0.70;;;;;;;;;;5526750;26;20371;-84
2024/05/06 09:05:51;;;;;;;1.33;0.70;;;;;;;;;;5525529;26;20398;-83
2024/05/06 09:08:17;;;;;;;1.05;0.68;;;;;;;;;;5527591;26;20328;-84
2024/05/06 09:10:44;;;;;;;1.08;0.80;;;;;;;;;;5527981;26;20409;-84
2024/05/06 09:13:10;;;;;;;0.63;0.63;;;;;;;;;;5527068;26;20812;-83
2024/05/06 09:15:36;;;;;;;2.55;0.85;;;;;;;;;;5527498;26;20821;-83
2024/05/06 09:18:05;;;;;;;0.60;0.60;;;;;;;;;;5527766;26;20820;-83
2024/05/06 09:20:31;;;;;;;1.60;0.73;;;;;;;;;;5524667;26;20327;-83
2024/05/06 09:22:57;;;;;;;1.13;0.63;;;;;;;;;;5524138;26;20312;-83
2024/05/06 09:25:23;;;;;;;1.50;0.85;;;;;;;;;;5500430;26;20337;-83
2024/05/06 09:27:49;;;;;;;2.17;0.70;;;;;;;;;;5487077;26;20428;-83
2024/05/06 09:30:15;;;;;;;0.60;0.60;;;;;;;;;;5486880;26;20424;-83
2024/05/06 09:32:43;;;;;;;0.93;0.80;;;;;;;;;;5486425;26;20330;-83
2024/05/06 09:35:10;;;;;;;0.70;0.70;;;;;;;;;;5487356;26;20326;-83
2024/05/06 09:37:40;;;;;;;0.95;0.90;;;;;;;;;;5487270;26;20407;-84
2024/05/06 09:40:09;;;;;;;1.52;1.00;;;;;;;;;;5486481;26;20351;-83
2024/05/06 09:42:45;;;;;;;1.17;0.90;;;;;;;;;;5486197;26;20330;-83
2024/05/06 09:45:11;;;;;;;1.00;0.95;;;;;;;;;;5486308;26;20851;-83
2024/05/06 09:47:37;;;;;;;0.77;0.77;;;;;;;;;;5489881;26;20323;-83
2024/05/06 09:50:04;;;;;;;2.38;1.00;;;;;;;;;;5490581;26;20374;-83
2024/05/06 09:52:31;;;;;;;1.00;0.88;;;;;;;;;;5525603;26;20382;-83
2024/05/06 09:54:58;;;;;;;1.30;1.00;;;;;;;;;;5526830;26;20357;-83
2024/05/06 09:57:25;;;;;;;1.00;0.90;;;;;;;;;;5527166;26;20379;-83
2024/05/06 09:59:51;;;;;;;0.80;0.80;;;;;;;;;;5526574;26;20888;-83
2024/05/06 10:02:19;;;;;;;2.22;1.00;;;;;;;;;;5527309;26;20347;-83
2024/05/06 10:04:45;;;;;;;1.23;1.13;;;;;;;;;;5527995;26;20315;-83
2024/05/06 10:07:13;;;;;;;2.00;1.13;;;;;;;;;;5528506;26;20396;-84
2024/05/06 10:09:39;;;;;;;1.33;1.15;;;;;;;;;;5528981;26;20335;-83
2024/05/06 10:12:06;;;;;;;1.10;1.10;;;;;;;;;;5530063;26;20316;-83
2024/05/06 10:14:32;;;;;;;1.60;1.50;;;;;;;;;;5530382;26;20353;-84
2024/05/06 10:17:06;;;;;;;1.45;1.15;;;;;;;;;;5531658;26;20787;-83
2024/05/06 10:19:32;;;;;;;0.75;0.73;;;;;;;;;;5530224;26;20332;-83
2024/05/06 10:21:58;;;;;;;0.80;0.70;;;;;;;;;;5530556;26;20907;-83
2024/05/06 10:24:24;;;;;;;0.80;0.77;;;;;;;;;;5530577;26;20412;-83
2024/05/06 10:26:51;;;;;;;0.68;0.63;;;;;;;;;;5529162;26;20332;-83
2024/05/06 10:29:18;;;;;;;1.20;0.88;;;;;;;;;;5531678;26;20677;-83
2024/05/06 10:31:48;;;;;;;1.60;0.73;;;;;;;;;;5530145;26;20320;-83
2024/05/06 10:34:20;;;;;;;0.60;0.57;;;;;;;;;;5532567;26;20820;-83
2024/05/06 10:36:52;;;;;;;1.03;0.83;;;;;;;;;;5529630;26;20368;-83
2024/05/06 10:39:19;;;;;;;0.85;0.80;;;;;;;;;;5529310;26;20368;-83
2024/05/06 10:41:46;;;;;;;1.15;1.00;;;;;;;;;;5528755;26;20673;-83
2024/05/06 10:44:12;;;;;;;1.00;0.70;;;;;;;;;;5528293;26;20354;-83
2024/05/06 10:46:38;;;;;;;2.90;0.95;;;;;;;;;;5528039;26;20685;-83
2024/05/06 10:49:04;;;;;;;1.90;1.10;;;;;;;;;;5529938;26;20392;-84
2024/05/06 10:51:30;;;;;;;0.82;0.82;;;;;;;;;;5529313;26;20367;-84
2024/05/06 10:53:57;;;;;;;2.17;1.00;;;;;;;;;;5530245;26;20382;-83
2024/05/06 10:56:24;;;;;;;1.92;0.90;;;;;;;;;;5529811;26;20421;-84
2024/05/06 10:58:50;;;;;;;1.50;1.00;;;;;;;;;;5531339;26;20319;-84
2024/05/06 11:01:16;;;;;;;1.20;1.10;;;;;;;;;;5529241;26;20371;-83
2024/05/06 11:03:43;;;;;;;1.50;1.30;;;;;;;;;;5530950;26;20375;-83
2024/05/06 11:06:09;;;;;;;1.00;0.90;;;;;;;;;;5530134;26;20419;-85
2024/05/06 11:08:35;;;;;;;1.55;1.08;;;;;;;;;;5522835;25;20321;-84
2024/05/06 11:11:02;;;;;;;1.20;1.10;;;;;;;;;;5531078;25;20327;-82
2024/05/06 11:13:28;;;;;;;1.48;1.17;;;;;;;;;;5525642;26;20359;-85
2024/05/06 11:15:57;;;;;;;1.80;0.90;;;;;;;;;;5500477;26;20872;-83
2024/05/06 11:18:23;;;;;;;1.95;0.90;;;;;;;;;;5529572;26;20420;-83
2024/05/06 11:20:49;;;;;;;3.60;0.80;;;;;;;;;;5528848;26;20344;-82
2024/05/06 11:23:15;;;;;;;1.40;0.90;;;;;;;;;;5529951;26;20331;-83
2024/05/06 11:25:44;;;;;;;1.90;1.08;;;;;;;;;;5522610;26;20331;-83
2024/05/06 11:28:11;;;;;;;2.20;0.95;;;;;;;;;;5524808;26;20378;-83
2024/05/06 11:30:37;;;;;;;2.38;1.10;;;;;;;;;;5522498;25;20337;-83
2024/05/06 11:33:04;;;;;;;1.30;0.90;;;;;;;;;;5517911;25;20360;-82
2024/05/06 11:35:30;;;;;;;1.60;0.60;;;;;;;;;;5492113;26;20327;-82
2024/05/06 11:37:56;;;;;;;1.00;0.65;;;;;;;;;;5529671;26;20328;-82
2024/05/06 11:40:22;;;;;;;1.25;0.60;;;;;;;;;;5532526;25;20376;-82
2024/05/06 11:42:48;;;;;;;0.70;0.57;;;;;;;;;;5550021;25;20313;-82
2024/05/06 11:45:14;;;;;;;0.60;0.60;;;;;;;;;;5526167;26;20958;-82
2024/05/06 11:47:42;;;;;;;1.93;1.00;;;;;;;;;;5494892;26;20410;-82
2024/05/06 11:50:08;;;;;;;1.70;1.10;;;;;;;;;;5529871;25;20321;-82
2024/05/06 11:52:34;;;;;;;0.93;0.90;;;;;;;;;;5496404;26;20383;-82
2024/05/06 11:55:01;;;;;;;2.42;1.02;;;;;;;;;;5525572;26;20324;-83
2024/05/06 11:57:27;;;;;;;3.57;1.20;;;;;;;;;;5528492;26;20331;-82
2024/05/06 11:59:53;;;;;;;1.77;1.27;;;;;;;;;;5527546;26;20374;-82
2024/05/06 12:02:19;;;;;;;2.03;1.52;;;;;;;;;;5524919;26;20354;-82
2024/05/06 12:04:46;;;;;;;2.93;1.43;;;;;;;;;;5526902;26;20701;-82
2024/05/06 12:07:12;;;;;;;1.33;1.00;;;;;;;;;;5525519;26;20324;-83
2024/05/06 12:09:38;;;;;;;1.73;1.30;;;;;;;;;;5528798;26;20335;-83
2024/05/06 12:12:04;;;;;;;1.77;0.90;;;;;;;;;;5528015;26;20351;-83
2024/05/06 12:14:30;;;;;;;1.40;0.90;;;;;;;;;;5495736;26;20327;-83
2024/05/06 12:16:56;;;;;;;2.45;1.08;;;;;;;;;;5527507;26;20324;-83
2024/05/06 12:19:24;;;;;;;2.63;1.08;;;;;;;;;;5523123;26;20428;-83
2024/05/06 12:21:50;;;;;;;1.58;1.10;;;;;;;;;;5528772;26;20375;-83
2024/05/06 12:24:16;;;;;;;1.70;1.30;;;;;;;;;;5534686;26;20308;-83
2024/05/06 12:26:43;;;;;;;1.88;1.05;;;;;;;;;;5529148;26;20315;-83
2024/05/06 12:29:12;;;;;;;1.42;1.05;;;;;;;;;;5527479;26;20364;-83
2024/05/06 12:31:38;;;;;;;1.30;1.10;;;;;;;;;;5528032;26;20327;-83
2024/05/06 12:34:04;;;;;;;2.72;1.60;;;;;;;;;;5527579;26;20685;-83
2024/05/06 12:36:31;;;;;;;1.57;1.10;;;;;;;;;;5494325;26;20356;-85
2024/05/06 12:38:59;;;;;;;1.33;1.07;;;;;;;;;;5527476;26;20331;-83
2024/05/06 12:41:25;;;;;;;1.55;0.95;;;;;;;;;;5527444;26;20406;-83
2024/05/06 12:43:51;;;;;;;2.08;1.13;;;;;;;;;;5526724;26;20324;-82
2024/05/06 12:46:17;;;;;;;1.50;1.07;;;;;;;;;;5529204;26;20528;-81
2024/05/06 12:48:43;;;;;;;2.38;1.10;;;;;;;;;;5525564;26;20320;-82
2024/05/06 12:51:09;;;;;;;2.35;1.10;;;;;;;;;;5490019;26;20351;-82
2024/05/06 12:53:35;;;;;;;1.50;0.90;;;;;;;;;;5493239;26;20335;-82
2024/05/06 12:56:01;;;;;;;1.08;0.70;;;;;;;;;;5491571;26;20334;-82
2024/05/06 12:58:27;;;;;;;1.35;0.98;;;;;;;;;;5492931;26;20349;-82
2024/05/06 13:00:53;;;;;;;1.00;0.70;;;;;;;;;;5490620;26;20721;-82
2024/05/06 13:03:24;;;;;;;1.30;0.60;;;;;;;;;;5514707;26;20324;-84
2024/05/06 13:05:50;;;;;;;0.68;0.65;;;;;;;;;;5525466;26;20327;-84
2024/05/06 13:08:16;;;;;;;1.55;0.75;;;;;;;;;;5524601;26;20320;-82
2024/05/06 13:10:42;;;;;;;1.02;0.80;;;;;;;;;;5524085;26;20735;-82
2024/05/06 13:13:08;;;;;;;0.70;0.70;;;;;;;;;;5526355;26;20319;-82
2024/05/06 13:15:34;;;;;;;0.70;0.60;;;;;;;;;;5526563;26;20894;-82
2024/05/06 13:18:00;;;;;;;1.50;0.68;;;;;;;;;;5493392;26;20420;-82
2024/05/06 13:20:27;;;;;;;2.03;0.50;;;;;;;;;;5529518;26;20331;-82
2024/05/06 13:22:53;;;;;;;0.70;0.70;;;;;;;;;;5531057;26;20413;-82
2024/05/06 13:25:19;;;;;;;1.40;0.80;;;;;;;;;;5498258;26;20326;-82
2024/05/06 13:27:46;;;;;;;1.98;0.73;;;;;;;;;;5497300;26;20322;-82
2024/05/06 13:30:12;;;;;;;1.17;0.80;;;;;;;;;;5496345;26;20350;-82
2024/05/06 13:32:39;;;;;;;2.08;0.80;;;;;;;;;;5458343;26;20404;-82
2024/05/06 13:35:07;;;;;;;1.37;1.00;;;;;;;;;;5492380;26;20429;-82
2024/05/06 13:37:34;;;;;;;2.30;1.00;;;;;;;;;;5497795;26;21017;-82
2024/05/06 13:40:00;;;;;;;1.98;1.10;;;;;;;;;;5497134;26;20326;-82
2024/05/06 13:42:26;;;;;;;2.28;1.20;;;;;;;;;;5498649;26;20318;-83
2024/05/06 13:44:52;;;;;;;1.60;1.20;;;;;;;;;;5498136;26;20346;-84
2024/05/06 13:47:19;;;;;;;2.10;1.02;;;;;;;;;;5464328;26;20327;-84
2024/05/06 13:49:45;;;;;;;1.50;1.02;;;;;;;;;;5490578;26;20937;-84
2024/05/06 13:52:11;;;;;;;1.60;1.00;;;;;;;;;;5490527;26;20374;-84
2024/05/06 13:54:37;;;;;;;0.95;0.95;;;;;;;;;;5457919;26;20383;-83
2024/05/06 13:57:03;;;;;;;2.10;1.42;;;;;;;;;;5504176;26;20339;-83
2024/05/06 13:59:29;;;;;;;2.47;1.30;;;;;;;;;;5526314;26;20363;-84
2024/05/06 14:01:55;;;;;;;2.07;1.00;;;;;;;;;;5525926;26;20312;-85
2024/05/06 14:04:22;;;;;;;2.72;0.70;;;;;;;;;;5526138;26;20706;-84
2024/05/06 14:06:48;;;;;;;3.70;1.10;;;;;;;;;;5492613;26;20446;-84
2024/05/06 14:09:14;;;;;;;2.50;1.00;;;;;;;;;;5527290;26;20327;-84
2024/05/06 14:11:40;;;;;;;0.77;0.70;;;;;;;;;;5528875;26;20319;-85
2024/05/06 14:14:06;;;;;;;1.20;1.00;;;;;;;;;;5527372;26;20356;-85
2024/05/06 14:16:32;;;;;;;1.20;0.90;;;;;;;;;;5526316;26;20342;-85
2024/05/06 14:18:58;;;;;;;0.95;0.80;;;;;;;;;;5496047;26;20330;-85
2024/05/06 14:21:24;;;;;;;0.70;0.70;;;;;;;;;;5526318;26;20926;-85
2024/05/06 14:23:51;;;;;;;2.17;0.80;;;;;;;;;;5494167;26;20328;-85
2024/05/06 14:26:17;;;;;;;1.25;0.80;;;;;;;;;;5493014;26;20824;-85
2024/05/06 14:28:43;;;;;;;1.60;0.70;;;;;;;;;;5494635;26;21254;-85
2024/05/06 14:31:12;;;;;;;1.00;0.80;;;;;;;;;;5531472;26;20323;-84
2024/05/06 14:33:39;;;;;;;1.20;0.75;;;;;;;;;;5531913;26;20320;-84
2024/05/06 14:36:05;;;;;;;0.60;0.60;;;;;;;;;;5534600;26;20665;-84
2024/05/06 14:38:31;;;;;;;1.47;0.80;;;;;;;;;;5534105;26;20336;-84
2024/05/06 14:40:57;;;;;;;0.85;0.70;;;;;;;;;;5532180;26;20367;-84